Terminal Aerodrome Forecast
Issued by NWS Quad Cities IA IL

Home | Current Version | Previous Version | Text Only | Print | Product List | Glossary On
Versions: 1 2 3 4 5 6 7 8 9 10 11 12 13 14 15 16 17 18 19 20 21 22 23 24 25 26 27 28 29 30 31 32 33
000
FTUS43 KDVN 231100
TAFDBQ
TAF
KDBQ 231127Z 2312/2412 VRB02KT P6SM VCSH SCT035 OVC150
     FM231400 12005KT P6SM SCT006 BKN050
      TEMPO 2315/2317 2SM TSRA BR OVC008CB
     FM231800 13006KT P6SM BKN040
     FM240700 12005KT 1SM BR SCT100=

USA.gov is the U.S. government's official web portal to all federal, state and local government web resources and services.